Time;durP1;ratioP1;P1;durP2;ratioP2;P2;SDS_P1;SDS_P2;PMS_P1;PMS_P2;Temp;Humidity;BMP_temperature;BMP_pressure;BME280_temperature;BME280_humidity;BME280_pressure;Samples;Min_cycle;Max_cycle;Signal;HPM_P1;HPM_P2
2022/12/17 13:06:07;;;;;;;25.47;13.30;;;14.70;93.60;;;;;;6164061;23;20228;-76
2022/12/17 13:08:37;;;;;;;27.37;13.37;;;14.50;93.80;;;;;;6162418;23;20203;-76
2022/12/17 13:11:25;;;;;;;23.80;13.27;;;14.40;94.00;;;;;;6165808;23;20215;-78
2022/12/17 13:13:55;;;;;;;27.05;15.02;;;14.30;94.10;;;;;;6161811;23;20383;-77
2022/12/17 13:16:32;;;;;;;25.23;13.33;;;14.30;94.40;;;;;;6162144;23;20171;-79
2022/12/17 13:19:03;;;;;;;28.17;14.20;;;14.20;94.50;;;;;;6165501;23;20175;-78
2022/12/17 13:21:31;;;;;;;23.63;12.90;;;14.20;94.60;;;;;;6166210;23;20188;-76
2022/12/17 13:24:12;;;;;;;29.67;14.53;;;14.10;94.70;;;;;;6160708;23;20199;-78
2022/12/17 13:26:44;;;;;;;27.90;13.83;;;14.00;94.90;;;;;;6163749;23;20192;-77
2022/12/17 13:29:23;;;;;;;27.70;14.50;;;14.00;95.00;;;;;;6154259;23;20216;-78
2022/12/17 13:32:07;;;;;;;27.90;14.73;;;14.00;95.10;;;;;;6152023;23;20192;-77
2022/12/17 13:35:00;;;;;;;26.77;14.20;;;13.90;95.30;;;;;;6155402;23;20535;-78
2022/12/17 13:37:46;;;;;;;26.27;13.50;;;13.80;95.60;;;;;;6160099;23;20168;-80
2022/12/17 13:40:27;;;;;;;29.37;14.73;;;13.90;95.70;;;;;;6157746;23;20177;-79
2022/12/17 13:42:55;;;;;;;29.97;14.60;;;13.80;95.80;;;;;;6159823;23;20357;-80
2022/12/17 13:45:26;;;;;;;26.97;14.40;;;13.70;96.00;;;;;;6149019;23;20204;-80
2022/12/17 13:47:55;;;;;;;31.93;14.10;;;13.70;96.10;;;;;;6155689;23;20188;-78
2022/12/17 13:50:25;;;;;;;27.87;15.17;;;13.60;96.10;;;;;;6162908;23;20173;-79
2022/12/17 13:53:10;;;;;;;26.63;15.03;;;13.60;96.30;;;;;;6164448;23;20613;-77
2022/12/17 13:55:39;;;;;;;27.13;14.33;;;13.60;96.20;;;;;;6159542;23;20156;-78
2022/12/17 13:58:24;;;;;;;28.67;14.27;;;13.60;96.20;;;;;;6158759;23;20668;-83
2022/12/17 14:01:05;;;;;;;26.20;13.90;;;13.60;96.30;;;;;;6159179;23;20161;-77
2022/12/17 14:03:34;;;;;;;28.67;15.27;;;13.50;96.40;;;;;;6159925;23;20160;-75
2022/12/17 14:06:24;;;;;;;31.50;15.80;;;13.50;96.30;;;;;;6158422;23;20641;-77
2022/12/17 14:08:55;;;;;;;29.60;15.17;;;13.50;96.40;;;;;;6159626;23;20188;-76
2022/12/17 14:14:20;;;;;;;24.10;14.07;;;13.50;96.40;;;;;;6159833;23;20165;-78
2022/12/17 14:16:49;;;;;;;27.15;15.63;;;13.40;96.40;;;;;;6156945;23;20732;-79
2022/12/17 14:19:21;;;;;;;25.23;14.23;;;13.40;96.60;;;;;;6159688;23;20172;-79
2022/12/17 14:21:50;;;;;;;26.33;14.77;;;13.40;96.60;;;;;;6158297;23;20168;-79
2022/12/17 14:24:25;;;;;;;30.37;15.77;;;13.40;96.60;;;;;;6160128;23;20244;-78
2022/12/17 14:26:58;;;;;;;30.90;15.20;;;13.30;96.60;;;;;;6159862;23;20164;-80
2022/12/17 14:29:29;;;;;;;27.33;13.83;;;13.30;96.60;;;;;;6161530;23;20220;-81
2022/12/17 14:32:00;;;;;;;30.97;14.83;;;13.20;96.60;;;;;;6152820;23;20906;-79
2022/12/17 14:34:29;;;;;;;33.00;15.37;;;13.20;96.60;;;;;;6152461;23;20219;-82
2022/12/17 14:36:59;;;;;;;31.20;16.50;;;13.20;96.70;;;;;;6155801;23;20474;-81
2022/12/17 14:39:30;;;;;;;28.93;15.47;;;13.10;96.80;;;;;;6152842;23;20161;-80
2022/12/17 14:42:31;;;;;;;31.80;15.63;;;13.10;96.70;;;;;;6153349;23;20252;-84
2022/12/17 14:45:01;;;;;;;32.67;15.40;;;13.00;96.90;;;;;;6155536;23;20522;-82
2022/12/17 14:47:32;;;;;;;34.40;16.77;;;12.90;97.10;;;;;;6153264;23;20165;-83
2022/12/17 14:50:04;;;;;;;30.27;16.97;;;12.80;97.10;;;;;;6152848;23;20211;-82
2022/12/17 14:52:42;;;;;;;34.70;16.13;;;12.80;97.30;;;;;;6153037;23;20185;-84
2022/12/17 14:55:33;;;;;;;33.20;16.63;;;12.70;97.40;;;;;;6154066;23;20215;-82
2022/12/17 14:58:16;;;;;;;33.13;16.37;;;12.60;97.60;;;;;;6152114;23;20773;-83
2022/12/17 15:00:46;;;;;;;32.07;16.97;;;12.50;97.70;;;;;;6152577;23;20997;-80
2022/12/17 15:03:20;;;;;;;29.60;15.77;;;12.50;97.80;;;;;;6150792;23;20247;-81
2022/12/17 15:05:52;;;;;;;34.00;17.93;;;12.50;97.70;;;;;;6151850;23;20172;-84
2022/12/17 15:08:21;;;;;;;30.47;16.57;;;12.40;97.80;;;;;;6153382;23;20165;-84
2022/12/17 15:10:50;;;;;;;34.27;17.67;;;12.40;98.10;;;;;;6154247;23;20692;-82
2022/12/17 15:13:20;;;;;;;35.00;16.63;;;12.30;98.30;;;;;;6150849;23;20200;-82
2022/12/17 15:15:48;;;;;;;31.23;16.83;;;12.20;98.50;;;;;;6152525;23;20168;-83
2022/12/17 15:18:16;;;;;;;30.20;16.50;;;12.20;98.90;;;;;;6153993;23;20831;-78
2022/12/17 15:20:46;;;;;;;36.27;16.63;;;12.10;98.80;;;;;;6150783;23;20172;-82
2022/12/17 15:23:17;;;;;;;35.77;18.53;;;12.20;98.60;;;;;;6147019;23;20186;-78
2022/12/17 15:25:47;;;;;;;41.67;18.57;;;12.10;98.90;;;;;;6149362;23;20590;-79
2022/12/17 15:28:16;;;;;;;37.10;17.00;;;12.00;99.10;;;;;;6153062;23;20161;-80
2022/12/17 15:30:46;;;;;;;34.00;16.73;;;12.00;99.10;;;;;;6151987;23;20201;-80
2022/12/17 15:33:17;;;;;;;35.60;16.73;;;12.00;99.30;;;;;;6150664;23;20184;-78
2022/12/17 15:35:45;;;;;;;34.47;16.63;;;12.00;99.40;;;;;;6147919;23;20502;-80
2022/12/17 15:38:13;;;;;;;35.50;16.87;;;12.00;99.40;;;;;;6153945;23;20231;-79
2022/12/17 15:40:42;;;;;;;30.57;15.43;;;11.90;99.60;;;;;;6152211;23;20234;-80
2022/12/17 15:43:10;;;;;;;32.50;16.47;;;12.00;99.50;;;;;;6152462;23;20176;-79
2022/12/17 15:45:39;;;;;;;35.77;16.47;;;12.00;99.60;;;;;;6148376;23;20814;-79
2022/12/17 15:48:10;;;;;;;32.77;17.33;;;12.00;99.60;;;;;;6147779;23;20184;-79
2022/12/17 15:50:38;;;;;;;37.80;17.20;;;12.00;99.60;;;;;;6149570;23;20161;-79
2022/12/17 15:53:08;;;;;;;38.23;17.20;;;12.00;99.60;;;;;;6152193;23;20196;-80
2022/12/17 15:55:37;;;;;;;34.27;16.60;;;12.00;99.90;;;;;;6146089;23;20173;-79
2022/12/17 15:58:06;;;;;;;35.13;16.63;;;12.00;99.80;;;;;;6150995;23;20183;-77
2022/12/17 16:00:34;;;;;;;38.33;16.30;;;12.00;99.80;;;;;;6149615;23;20176;-79
2022/12/17 16:03:03;;;;;;;35.00;16.33;;;12.00;99.80;;;;;;6151113;23;20684;-79
2022/12/17 16:05:33;;;;;;;35.43;18.00;;;12.00;99.90;;;;;;6150924;23;20184;-78
2022/12/17 16:08:02;;;;;;;30.17;15.67;;;12.00;99.90;;;;;;6149832;23;20176;-78
2022/12/17 16:10:31;;;;;;;33.50;15.97;;;12.00;99.90;;;;;;6148906;23;20172;-78
2022/12/17 16:12:59;;;;;;;30.20;14.63;;;12.00;99.90;;;;;;6152515;23;20200;-80
2022/12/17 16:15:28;;;;;;;29.97;16.87;;;12.00;99.90;;;;;;6151162;23;20176;-80
2022/12/17 16:17:58;;;;;;;29.87;16.07;;;12.00;99.90;;;;;;6151614;23;20208;-78
2022/12/17 16:20:27;;;;;;;35.23;17.00;;;12.00;99.90;;;;;;6150552;23;20171;-79
2022/12/17 16:22:57;;;;;;;35.33;18.07;;;12.00;99.90;;;;;;6148872;23;20180;-80
2022/12/17 16:25:25;;;;;;;36.43;16.97;;;12.00;99.90;;;;;;6150582;23;20595;-80
2022/12/17 16:27:53;;;;;;;34.47;17.73;;;11.90;99.90;;;;;;6146222;23;20207;-79
2022/12/17 16:30:22;;;;;;;32.93;16.83;;;12.00;99.90;;;;;;6148310;23;20796;-78
2022/12/17 16:32:50;;;;;;;35.50;17.97;;;12.00;99.90;;;;;;6151853;23;20500;-79
2022/12/17 16:35:19;;;;;;;37.20;17.63;;;12.00;99.90;;;;;;6152866;23;20227;-78
2022/12/17 16:37:47;;;;;;;34.70;17.47;;;12.00;99.90;;;;;;6142842;23;20195;-77
2022/12/17 16:40:17;;;;;;;33.67;16.63;;;12.00;99.90;;;;;;6149728;23;20172;-79
2022/12/17 16:42:45;;;;;;;35.57;16.60;;;12.00;99.90;;;;;;6152408;23;20172;-78
2022/12/17 16:45:14;;;;;;;37.53;16.53;;;12.00;99.90;;;;;;6151706;23;20637;-80
2022/12/17 16:47:42;;;;;;;36.27;17.60;;;12.00;99.90;;;;;;6153856;23;20223;-81
2022/12/17 16:50:10;;;;;;;32.27;16.90;;;12.10;99.90;;;;;;6151285;23;20179;-79
2022/12/17 16:52:39;;;;;;;30.30;15.80;;;12.10;99.90;;;;;;6152082;23;20192;-80
2022/12/17 16:55:07;;;;;;;32.97;17.13;;;12.20;99.90;;;;;;6151003;23;20178;-80
2022/12/17 16:57:37;;;;;;;35.67;17.27;;;12.20;99.90;;;;;;6153358;23;20184;-79
2022/12/17 17:00:06;;;;;;;33.80;17.17;;;12.20;99.90;;;;;;6150448;23;20196;-82
2022/12/17 17:02:35;;;;;;;34.87;17.10;;;12.20;99.90;;;;;;6151050;23;20180;-81
2022/12/17 17:05:04;;;;;;;33.17;17.13;;;12.20;99.90;;;;;;6149644;23;20512;-80
2022/12/17 17:07:32;;;;;;;32.07;16.53;;;12.20;99.90;;;;;;6153286;23;20184;-79
2022/12/17 17:10:00;;;;;;;31.33;16.83;;;12.20;99.90;;;;;;6151660;23;20673;-80
2022/12/17 17:12:29;;;;;;;37.95;19.58;;;12.20;99.90;;;;;;6145537;23;20411;-80
2022/12/17 17:14:58;;;;;;;33.27;16.67;;;12.20;99.90;;;;;;6150188;23;20172;-80
2022/12/17 17:17:27;;;;;;;35.87;17.20;;;12.20;99.90;;;;;;6149588;23;20243;-78
2022/12/17 17:20:15;;;;;;;37.20;17.10;;;12.10;99.90;;;;;;6150044;23;20643;-80
2022/12/17 17:22:44;;;;;;;33.00;17.37;;;12.10;99.90;;;;;;6151578;23;20273;-81
2022/12/17 17:25:14;;;;;;;39.67;17.73;;;12.10;99.90;;;;;;6148547;23;20238;-82
2022/12/17 17:27:42;;;;;;;34.60;17.43;;;12.20;99.90;;;;;;6151775;23;20235;-80
2022/12/17 17:30:13;;;;;;;31.90;16.87;;;12.10;99.90;;;;;;6150005;23;20196;-81
2022/12/17 17:32:42;;;;;;;31.33;16.77;;;12.10;99.90;;;;;;6153032;23;20208;-82
2022/12/17 17:35:10;;;;;;;31.67;16.37;;;12.00;99.90;;;;;;6153171;23;20180;-80
2022/12/17 17:37:38;;;;;;;34.50;18.65;;;12.00;99.80;;;;;;6145717;23;20391;-80
2022/12/17 17:40:08;;;;;;;33.23;17.27;;;12.00;99.80;;;;;;6152093;23;20231;-80
2022/12/17 17:42:36;;;;;;;34.07;15.20;;;11.90;99.60;;;;;;6152364;23;20176;-80
2022/12/17 17:45:07;;;;;;;32.07;15.87;;;11.90;99.60;;;;;;6147803;23;20180;-80
2022/12/17 17:47:37;;;;;;;30.50;15.17;;;11.80;99.60;;;;;;6152384;23;20199;-80
2022/12/17 17:50:06;;;;;;;32.03;15.83;;;11.80;99.80;;;;;;6151678;23;20177;-81
2022/12/17 17:52:34;;;;;;;31.80;16.47;;;11.80;99.80;;;;;;6150981;23;20173;-78
2022/12/17 17:55:03;;;;;;;29.77;15.67;;;11.70;99.90;;;;;;6150560;23;20264;-81
2022/12/17 17:57:32;;;;;;;27.70;15.43;;;11.70;99.90;;;;;;6152933;23;20231;-81
2022/12/17 18:00:00;;;;;;;28.93;15.03;;;11.80;99.90;;;;;;6149858;23;20173;-80
2022/12/17 18:02:28;;;;;;;29.00;14.83;;;11.70;99.90;;;;;;6153957;23;20200;-81
2022/12/17 18:05:01;;;;;;;29.47;14.90;;;11.70;99.90;;;;;;6151824;23;20307;-80
2022/12/17 18:07:30;;;;;;;26.50;13.67;;;11.80;99.90;;;;;;6153189;23;20173;-82
2022/12/17 18:09:58;;;;;;;26.13;14.93;;;11.80;99.90;;;;;;6149492;23;20501;-78
2022/12/17 18:15:12;;;;;;;25.67;14.07;;;11.80;99.90;;;;;;6154310;23;20165;-79
2022/12/17 18:17:45;;;;;;;22.07;13.17;;;11.80;99.90;;;;;;6153234;23;20706;-81
2022/12/17 18:20:15;;;;;;;31.77;16.63;;;11.80;99.90;;;;;;6151369;23;20181;-79
2022/12/17 18:22:45;;;;;;;34.33;16.37;;;11.70;99.90;;;;;;6153182;23;20227;-80
2022/12/17 18:25:14;;;;;;;30.97;16.17;;;11.70;99.90;;;;;;6154971;23;20410;-79
2022/12/17 18:27:42;;;;;;;28.80;15.60;;;11.70;99.90;;;;;;6149935;23;20195;-79
2022/12/17 18:30:12;;;;;;;37.43;19.47;;;11.70;99.90;;;;;;6152850;23;20196;-81
2022/12/17 18:32:40;;;;;;;54.30;28.80;;;11.60;99.90;;;;;;6148490;23;20173;-81
2022/12/17 18:35:09;;;;;;;79.33;43.07;;;11.60;99.80;;;;;;6151717;23;20169;-79
2022/12/17 18:37:39;;;;;;;87.87;49.37;;;11.50;99.60;;;;;;6154240;23;20634;-79
2022/12/17 18:40:08;;;;;;;95.00;53.22;;;11.50;99.70;;;;;;6152053;23;20387;-79
2022/12/17 18:45:22;;;;;;;70.37;33.30;;;11.40;99.90;;;;;;6154229;23;20582;-80
2022/12/17 18:47:51;;;;;;;63.23;28.13;;;11.40;99.90;;;;;;6148802;23;20176;-79
2022/12/17 18:50:19;;;;;;;55.80;24.50;;;11.30;99.90;;;;;;6151640;23;20173;-80
2022/12/17 18:52:49;;;;;;;51.78;24.65;;;11.30;99.90;;;;;;6143941;23;20398;-81
2022/12/17 18:55:20;;;;;;;44.17;19.17;;;11.20;99.90;;;;;;6155597;23;20247;-80
2022/12/17 18:57:49;;;;;;;40.43;18.47;;;11.20;99.90;;;;;;6153502;23;20395;-79
2022/12/17 19:00:17;;;;;;;43.20;20.37;;;11.20;99.90;;;;;;6151982;23;20177;-78
2022/12/17 19:02:45;;;;;;;40.83;19.60;;;11.20;99.90;;;;;;6150172;23;20176;-80
2022/12/17 19:05:14;;;;;;;46.55;20.63;;;11.10;99.90;;;;;;6152776;23;20387;-80
2022/12/17 19:07:42;;;;;;;41.37;18.90;;;11.20;99.90;;;;;;6160418;23;20173;-79
2022/12/17 19:10:12;;;;;;;38.97;18.40;;;11.10;99.90;;;;;;6151563;23;20842;-79
2022/12/17 19:12:41;;;;;;;34.60;16.17;;;11.10;99.90;;;;;;6148339;23;20934;-78
2022/12/17 19:15:10;;;;;;;40.13;17.97;;;11.10;99.90;;;;;;6152760;23;20582;-80
2022/12/17 19:17:38;;;;;;;45.05;18.98;;;11.10;99.90;;;;;;6155925;23;20930;-79
2022/12/17 19:20:07;;;;;;;37.70;18.13;;;11.10;99.90;;;;;;6150560;23;20748;-79
2022/12/17 19:22:36;;;;;;;46.60;18.50;;;11.10;99.90;;;;;;6154498;23;20172;-79
2022/12/17 19:25:05;;;;;;;39.73;17.33;;;11.10;99.90;;;;;;6156129;23;20625;-78
2022/12/17 19:27:34;;;;;;;41.60;18.07;;;11.00;99.90;;;;;;6152813;23;20192;-80
2022/12/17 19:30:04;;;;;;;43.00;19.15;;;11.00;99.90;;;;;;6159827;23;20386;-78
2022/12/17 19:32:32;;;;;;;41.10;19.37;;;11.00;99.90;;;;;;6154787;23;20223;-77
2022/12/17 19:35:00;;;;;;;47.90;19.17;;;11.00;99.90;;;;;;6147254;23;20247;-77
2022/12/17 19:37:29;;;;;;;45.40;18.90;;;11.00;99.90;;;;;;6151824;23;20177;-79
2022/12/17 19:39:57;;;;;;;39.60;16.93;;;11.00;99.90;;;;;;6152220;23;20177;-76
2022/12/17 19:42:26;;;;;;;39.37;17.83;;;11.00;99.90;;;;;;6155312;23;20172;-77
2022/12/17 19:45:05;;;;;;;45.47;17.17;;;11.00;99.90;;;;;;6152052;23;20551;-79
2022/12/17 19:47:34;;;;;;;41.13;17.10;;;11.00;99.90;;;;;;6156572;23;20653;-78
2022/12/17 19:50:02;;;;;;;41.93;17.47;;;10.90;99.90;;;;;;6153524;23;20212;-77
2022/12/17 19:52:30;;;;;;;45.83;17.80;;;11.00;99.90;;;;;;6159028;23;20173;-79
2022/12/17 19:54:59;;;;;;;39.20;17.07;;;11.00;99.90;;;;;;6155088;23;20204;-80
2022/12/17 19:57:27;;;;;;;42.43;18.73;;;11.00;99.90;;;;;;6157834;23;20175;-77
2022/12/17 19:59:55;;;;;;;39.97;17.50;;;10.90;99.90;;;;;;6156925;23;20177;-78
2022/12/17 20:02:25;;;;;;;38.33;18.00;;;10.90;99.90;;;;;;6159322;23;20172;-79
2022/12/17 20:05:00;;;;;;;44.60;18.07;;;10.90;99.90;;;;;;6156297;23;20242;-78
2022/12/17 20:07:28;;;;;;;46.53;18.57;;;10.90;99.90;;;;;;6154074;23;20633;-79
2022/12/17 20:09:57;;;;;;;43.53;18.47;;;10.90;99.90;;;;;;6152277;23;20243;-79
2022/12/17 20:12:25;;;;;;;40.80;18.13;;;10.90;99.90;;;;;;6159396;23;20372;-78
2022/12/17 20:14:53;;;;;;;38.47;18.27;;;10.90;99.90;;;;;;6154365;23;20572;-80
2022/12/17 20:17:23;;;;;;;43.67;21.27;;;10.80;99.90;;;;;;6157640;23;20413;-79
2022/12/17 20:19:55;;;;;;;34.93;18.13;;;10.90;99.90;;;;;;6155525;23;20543;-79
2022/12/17 20:22:25;;;;;;;38.07;19.63;;;10.90;99.90;;;;;;6155543;23;20207;-79
2022/12/17 20:24:53;;;;;;;40.67;19.23;;;10.80;99.90;;;;;;6156452;23;20219;-78
2022/12/17 20:27:21;;;;;;;33.60;17.57;;;10.90;99.90;;;;;;6153655;23;20168;-79
2022/12/17 20:29:50;;;;;;;32.37;16.20;;;10.90;99.90;;;;;;6158714;23;20204;-80
2022/12/17 20:32:20;;;;;;;37.33;17.27;;;10.80;99.90;;;;;;6153958;23;20157;-79
2022/12/17 20:34:48;;;;;;;31.40;16.87;;;10.80;99.90;;;;;;6155370;23;20194;-79
2022/12/17 20:37:18;;;;;;;29.97;16.23;;;10.90;99.90;;;;;;6152485;23;20179;-80
2022/12/17 20:39:46;;;;;;;27.17;15.43;;;10.90;99.90;;;;;;6156180;23;20200;-80
2022/12/17 20:42:16;;;;;;;26.97;14.97;;;10.90;99.90;;;;;;6148823;23;20176;-80
2022/12/17 20:44:46;;;;;;;28.20;14.87;;;10.90;99.90;;;;;;6154976;23;20203;-81
2022/12/17 20:47:20;;;;;;;26.07;13.93;;;10.80;99.90;;;;;;6156961;23;20180;-78
2022/12/17 20:49:48;;;;;;;26.47;13.63;;;10.90;99.90;;;;;;6151436;23;20219;-78
2022/12/17 20:52:18;;;;;;;22.83;11.83;;;10.90;99.90;;;;;;6157458;23;20176;-79
2022/12/17 20:54:49;;;;;;;22.80;13.00;;;10.90;99.90;;;;;;6156295;23;20888;-80
2022/12/17 20:57:17;;;;;;;25.80;13.27;;;10.80;99.90;;;;;;6158686;23;20622;-79
2022/12/17 20:59:45;;;;;;;22.80;12.03;;;10.80;99.90;;;;;;6156558;23;20549;-78
2022/12/17 21:02:14;;;;;;;21.30;11.83;;;10.80;99.90;;;;;;6153760;23;20622;-77
2022/12/17 21:04:43;;;;;;;18.63;10.90;;;10.80;99.90;;;;;;6159251;23;20156;-78
2022/12/17 21:07:11;;;;;;;19.47;11.37;;;10.70;99.90;;;;;;6161682;23;20177;-78
2022/12/17 21:09:41;;;;;;;21.10;11.20;;;10.70;99.60;;;;;;6157525;23;20176;-78
2022/12/17 21:12:11;;;;;;;20.47;11.03;;;10.60;99.60;;;;;;6153758;23;20176;-77
2022/12/17 21:14:39;;;;;;;18.87;10.53;;;10.60;99.30;;;;;;6155370;23;20202;-79
2022/12/17 21:17:07;;;;;;;20.53;10.40;;;10.50;99.30;;;;;;6158513;23;20200;-78
2022/12/17 21:19:36;;;;;;;18.20;9.70;;;10.40;99.30;;;;;;6157320;23;20560;-79
2022/12/17 21:22:05;;;;;;;19.33;10.13;;;10.40;99.40;;;;;;6080348;23;20554;-78
2022/12/17 21:24:36;;;;;;;20.10;9.87;;;10.40;99.30;;;;;;6158715;23;20171;-78
2022/12/17 21:27:05;;;;;;;14.07;7.97;;;10.30;99.00;;;;;;6153709;23;20223;-77
2022/12/17 21:29:41;;;;;;;12.00;7.13;;;10.20;99.00;;;;;;6162586;23;20171;-78
2022/12/17 21:32:10;;;;;;;12.30;7.50;;;10.20;99.00;;;;;;6162342;23;20185;-79
2022/12/17 21:34:38;;;;;;;13.57;6.53;;;10.20;98.90;;;;;;6161474;23;20184;-79
2022/12/17 21:37:07;;;;;;;12.10;6.50;;;10.10;98.90;;;;;;6162109;23;20633;-77
2022/12/17 21:39:36;;;;;;;10.53;6.47;;;10.10;98.80;;;;;;6154921;23;20259;-79
2022/12/17 21:44:52;;;;;;;13.67;6.50;;;9.90;99.10;;;;;;6164511;23;20188;-79
2022/12/17 21:47:21;;;;;;;13.13;6.60;;;9.80;98.70;;;;;;6163228;23;20204;-78
2022/12/17 21:49:49;;;;;;;10.20;6.13;;;9.80;98.70;;;;;;6162346;23;20184;-80
2022/12/17 21:52:17;;;;;;;11.50;6.70;;;9.70;98.70;;;;;;6162760;23;20235;-80
2022/12/17 21:54:46;;;;;;;10.80;6.80;;;9.60;98.90;;;;;;6162719;23;20176;-78
2022/12/17 21:57:16;;;;;;;12.27;7.03;;;9.60;98.80;;;;;;6158348;23;20179;-78
2022/12/17 21:59:44;;;;;;;15.47;8.00;;;9.60;98.80;;;;;;6155175;23;20180;-76
2022/12/17 22:02:12;;;;;;;12.30;6.67;;;9.60;98.80;;;;;;6158311;23;20177;-77
2022/12/17 22:04:41;;;;;;;15.67;8.13;;;9.50;98.80;;;;;;6156154;23;20645;-80
2022/12/17 22:07:09;;;;;;;13.33;6.80;;;9.50;98.80;;;;;;6149412;23;20173;-80
2022/12/17 22:09:57;;;;;;;12.53;7.50;;;9.50;98.90;;;;;;6151897;23;20178;-80
2022/12/17 22:15:33;;;;;;;12.60;6.83;;;9.40;98.80;;;;;;6156357;23;20646;-78
2022/12/17 22:18:15;;;;;;;13.33;7.37;;;9.40;98.90;;;;;;6161469;23;20164;-80
2022/12/17 22:20:43;;;;;;;17.20;7.90;;;9.40;98.90;;;;;;6156781;23;20207;-76
2022/12/17 22:23:12;;;;;;;14.10;7.93;;;9.30;98.90;;;;;;6156883;23;20172;-78
2022/12/17 22:25:41;;;;;;;13.80;8.03;;;9.30;98.90;;;;;;6155230;23;20173;-78
2022/12/17 22:28:10;;;;;;;13.73;7.33;;;9.30;98.90;;;;;;6156255;23;20173;-80
2022/12/17 22:33:27;;;;;;;12.40;7.17;;;9.30;98.60;;;;;;6159325;23;20240;-79
2022/12/17 22:36:15;;;;;;;16.08;8.77;;;9.20;98.70;;;;;;6155902;23;20442;-79
2022/12/17 22:39:07;;;;;;;17.57;7.77;;;9.20;98.60;;;;;;6160507;23;20165;-80
2022/12/17 22:45:06;;;;;;;16.70;8.33;;;9.20;98.50;;;;;;6161556;23;20259;-78
2022/12/17 22:47:38;;;;;;;15.40;7.73;;;9.20;98.40;;;;;;6160608;23;20161;-78
2022/12/17 22:50:07;;;;;;;16.63;8.27;;;9.20;98.20;;;;;;6160181;23;20169;-78
2022/12/17 22:52:36;;;;;;;17.47;8.40;;;9.20;98.10;;;;;;6156659;23;20248;-78
2022/12/17 22:55:06;;;;;;;15.50;7.40;;;9.10;98.10;;;;;;6154629;23;20173;-78
2022/12/17 22:57:34;;;;;;;16.17;7.17;;;9.10;98.10;;;;;;6154613;23;20207;-79
2022/12/17 23:00:18;;;;;;;16.93;8.63;;;9.20;98.00;;;;;;6153586;23;20208;-81
2022/12/17 23:02:46;;;;;;;17.33;7.73;;;9.20;98.00;;;;;;6154349;23;20172;-80
2022/12/17 23:05:14;;;;;;;12.63;7.37;;;9.20;98.00;;;;;;6153783;23;20176;-79
2022/12/17 23:07:43;;;;;;;15.73;8.30;;;9.10;97.80;;;;;;6154253;23;20223;-79
2022/12/17 23:10:11;;;;;;;13.87;8.20;;;9.20;97.80;;;;;;6151854;23;20275;-80
2022/12/17 23:12:52;;;;;;;17.57;8.43;;;9.10;97.70;;;;;;6147371;23;20172;-80
2022/12/17 23:15:25;;;;;;;15.77;8.00;;;9.20;97.70;;;;;;6153283;23;20164;-80
2022/12/17 23:17:56;;;;;;;16.80;8.00;;;9.10;97.60;;;;;;6152820;23;20165;-81
2022/12/17 23:20:24;;;;;;;17.17;8.63;;;9.10;97.50;;;;;;6149934;23;20164;-79
2022/12/17 23:22:53;;;;;;;18.97;9.00;;;9.10;97.50;;;;;;6153230;23;20176;-80
2022/12/17 23:25:24;;;;;;;15.77;8.20;;;9.10;97.30;;;;;;6153310;23;20177;-80
2022/12/17 23:27:52;;;;;;;19.63;9.43;;;9.00;97.30;;;;;;6153754;23;20171;-80
2022/12/17 23:30:21;;;;;;;17.77;8.20;;;9.00;97.30;;;;;;6151988;23;20197;-79
2022/12/17 23:32:51;;;;;;;17.10;8.67;;;9.00;97.20;;;;;;6153657;23;20173;-80
2022/12/17 23:35:19;;;;;;;16.37;7.93;;;9.00;97.20;;;;;;6151922;23;20486;-80
2022/12/17 23:37:48;;;;;;;16.30;8.10;;;9.00;97.30;;;;;;6151908;23;20227;-80
2022/12/17 23:40:16;;;;;;;15.60;7.43;;;9.00;97.30;;;;;;6153135;23;20633;-80
2022/12/17 23:42:44;;;;;;;16.77;8.67;;;9.00;97.10;;;;;;6153287;23;20168;-80
2022/12/17 23:45:13;;;;;;;18.00;9.03;;;8.90;97.00;;;;;;6151065;23;20172;-79
2022/12/17 23:47:41;;;;;;;22.23;9.27;;;8.90;96.90;;;;;;6155528;23;20176;-78
2022/12/17 23:50:11;;;;;;;19.43;9.47;;;8.90;96.90;;;;;;6151171;23;20184;-78
2022/12/17 23:52:40;;;;;;;18.67;9.40;;;8.90;96.80;;;;;;6155954;23;20164;-77
2022/12/17 23:55:10;;;;;;;20.33;9.67;;;8.80;96.70;;;;;;6154728;23;20544;-77
2022/12/17 23:57:38;;;;;;;18.17;9.47;;;8.80;97.30;;;;;;6155726;23;20249;-78
